sensor_id;sensor_type;location;lat;lon;timestamp;pressure;altitude;pressure_sealevel;temperature;humidity
42859;BME280;28505;56.970;40.998;2023-01-13T00:03:23;100872.22;;;-6.55;100.00
42859;BME280;28505;56.970;40.998;2023-01-13T00:08:49;100902.63;;;-6.37;100.00
42859;BME280;28505;56.970;40.998;2023-01-13T00:14:11;100889.66;;;-6.46;100.00
42859;BME280;28505;56.970;40.998;2023-01-13T00:19:34;100875.22;;;-6.50;100.00
42859;BME280;28505;56.970;40.998;2023-01-13T00:24:56;100865.53;;;-6.50;100.00
42859;BME280;28505;56.970;40.998;2023-01-13T00:30:23;100862.41;;;-6.45;100.00
42859;BME280;28505;56.970;40.998;2023-01-13T00:35:56;100887.03;;;-6.38;100.00
42859;BME280;28505;56.970;40.998;2023-01-13T00:41:21;100891.31;;;-6.37;100.00
42859;BME280;28505;56.970;40.998;2023-01-13T00:46:43;100884.56;;;-6.40;100.00
42859;BME280;28505;56.970;40.998;2023-01-13T00:52:05;100861.59;;;-6.46;100.00
42859;BME280;28505;56.970;40.998;2023-01-13T00:57:30;100866.69;;;-6.44;100.00
42859;BME280;28505;56.970;40.998;2023-01-13T01:02:52;100869.34;;;-6.36;100.00
42859;BME280;28505;56.970;40.998;2023-01-13T01:08:14;100853.28;;;-6.33;100.00
42859;BME280;28505;56.970;40.998;2023-01-13T01:13:37;100837.69;;;-6.34;100.00
42859;BME280;28505;56.970;40.998;2023-01-13T01:19:00;100860.19;;;-6.24;100.00
42859;BME280;28505;56.970;40.998;2023-01-13T01:24:22;100856.06;;;-6.26;100.00
42859;BME280;28505;56.970;40.998;2023-01-13T01:29:44;100865.13;;;-6.21;100.00
42859;BME280;28505;56.970;40.998;2023-01-13T01:35:07;100849.69;;;-6.24;100.00
42859;BME280;28505;56.970;40.998;2023-01-13T01:40:28;100850.00;;;-6.19;100.00
42859;BME280;28505;56.970;40.998;2023-01-13T01:45:51;100826.53;;;-6.28;100.00
42859;BME280;28505;56.970;40.998;2023-01-13T01:51:13;100821.13;;;-6.19;100.00
42859;BME280;28505;56.970;40.998;2023-01-13T01:56:37;100810.63;;;-6.19;100.00
42859;BME280;28505;56.970;40.998;2023-01-13T02:02:02;100807.06;;;-6.18;100.00
42859;BME280;28505;56.970;40.998;2023-01-13T02:07:30;100814.75;;;-6.16;100.00
42859;BME280;28505;56.970;40.998;2023-01-13T02:12:57;100805.72;;;-6.22;100.00
42859;BME280;28505;56.970;40.998;2023-01-13T02:30:03;100815.75;;;-6.09;100.00
42859;BME280;28505;56.970;40.998;2023-01-13T02:35:52;100796.88;;;-6.21;100.00
42859;BME280;28505;56.970;40.998;2023-01-13T02:41:28;100798.50;;;-6.12;100.00
42859;BME280;28505;56.970;40.998;2023-01-13T02:47:20;100798.50;;;-6.12;100.00
42859;BME280;28505;56.970;40.998;2023-01-13T02:52:47;100798.53;;;-6.03;100.00
42859;BME280;28505;56.970;40.998;2023-01-13T02:58:14;100801.47;;;-6.06;100.00
42859;BME280;28505;56.970;40.998;2023-01-13T03:03:37;100778.84;;;-6.07;100.00
42859;BME280;28505;56.970;40.998;2023-01-13T03:09:10;100779.16;;;-6.02;100.00
42859;BME280;28505;56.970;40.998;2023-01-13T03:14:59;100778.50;;;-5.96;100.00
42859;BME280;28505;56.970;40.998;2023-01-13T03:20:27;100769.63;;;-5.95;100.00
42859;BME280;28505;56.970;40.998;2023-01-13T03:26:07;100757.81;;;-5.99;100.00
42859;BME280;28505;56.970;40.998;2023-01-13T03:31:37;100757.78;;;-5.91;100.00
42859;BME280;28505;56.970;40.998;2023-01-13T03:37:04;100757.16;;;-5.93;100.00
42859;BME280;28505;56.970;40.998;2023-01-13T03:42:31;100770.94;;;-5.91;100.00
42859;BME280;28505;56.970;40.998;2023-01-13T03:47:56;100758.75;;;-5.92;100.00
42859;BME280;28505;56.970;40.998;2023-01-13T03:53:25;100753.84;;;-5.87;100.00
42859;BME280;28505;56.970;40.998;2023-01-13T03:58:49;100724.50;;;-5.99;100.00
42859;BME280;28505;56.970;40.998;2023-01-13T04:04:20;100745.63;;;-5.84;100.00
42859;BME280;28505;56.970;40.998;2023-01-13T04:09:57;100742.84;;;-5.82;100.00
42859;BME280;28505;56.970;40.998;2023-01-13T04:15:24;100741.38;;;-5.85;100.00
42859;BME280;28505;56.970;40.998;2023-01-13T04:20:52;100740.88;;;-5.80;100.00
42859;BME280;28505;56.970;40.998;2023-01-13T04:26:14;100733.50;;;-5.85;100.00
42859;BME280;28505;56.970;40.998;2023-01-13T04:31:36;100738.91;;;-5.78;100.00
42859;BME280;28505;56.970;40.998;2023-01-13T04:36:59;100746.59;;;-5.77;100.00
42859;BME280;28505;56.970;40.998;2023-01-13T04:42:21;100737.91;;;-5.77;100.00
42859;BME280;28505;56.970;40.998;2023-01-13T04:47:46;100735.94;;;-5.75;100.00
42859;BME280;28505;56.970;40.998;2023-01-13T04:53:09;100737.44;;;-5.81;100.00
42859;BME280;28505;56.970;40.998;2023-01-13T04:58:31;100732.19;;;-5.81;100.00
42859;BME280;28505;56.970;40.998;2023-01-13T05:03:53;100731.84;;;-5.78;100.00
42859;BME280;28505;56.970;40.998;2023-01-13T05:09:15;100723.97;;;-5.78;100.00
42859;BME280;28505;56.970;40.998;2023-01-13T05:14:37;100715.28;;;-5.78;100.00
42859;BME280;28505;56.970;40.998;2023-01-13T05:20:24;100726.91;;;-5.81;100.00
42859;BME280;28505;56.970;40.998;2023-01-13T05:25:49;100718.06;;;-5.80;100.00
42859;BME280;28505;56.970;40.998;2023-01-13T05:31:17;100724.13;;;-5.79;100.00
42859;BME280;28505;56.970;40.998;2023-01-13T05:36:52;100746.91;;;-5.63;100.00
42859;BME280;28505;56.970;40.998;2023-01-13T05:42:19;100746.28;;;-5.66;100.00
42859;BME280;28505;56.970;40.998;2023-01-13T05:48:02;100749.03;;;-5.67;100.00
42859;BME280;28505;56.970;40.998;2023-01-13T05:53:28;100738.25;;;-5.72;100.00
42859;BME280;28505;56.970;40.998;2023-01-13T05:58:50;100754.44;;;-5.60;100.00
42859;BME280;28505;56.970;40.998;2023-01-13T06:04:15;100738.25;;;-5.72;100.00
42859;BME280;28505;56.970;40.998;2023-01-13T06:09:38;100730.16;;;-5.62;100.00
42859;BME280;28505;56.970;40.998;2023-01-13T06:15:01;100710.31;;;-5.73;100.00
42859;BME280;28505;56.970;40.998;2023-01-13T06:20:24;100729.84;;;-5.68;100.00
42859;BME280;28505;56.970;40.998;2023-01-13T06:26:11;100740.66;;;-5.54;100.00
42859;BME280;28505;56.970;40.998;2023-01-13T06:31:37;100760.66;;;-5.53;100.00
42859;BME280;28505;56.970;40.998;2023-01-13T06:37:01;100755.09;;;-5.58;100.00
42859;BME280;28505;56.970;40.998;2023-01-13T06:42:27;100731.66;;;-5.68;100.00
42859;BME280;28505;56.970;40.998;2023-01-13T06:48:08;100756.06;;;-5.51;100.00
42859;BME280;28505;56.970;40.998;2023-01-13T06:53:31;100749.47;;;-5.47;100.00
42859;BME280;28505;56.970;40.998;2023-01-13T06:58:53;100740.78;;;-5.48;100.00
42859;BME280;28505;56.970;40.998;2023-01-13T07:04:15;100752.59;;;-5.44;100.00
42859;BME280;28505;56.970;40.998;2023-01-13T07:09:38;100751.44;;;-5.41;100.00
42859;BME280;28505;56.970;40.998;2023-01-13T07:15:02;100750.44;;;-5.40;100.00
42859;BME280;28505;56.970;40.998;2023-01-13T07:20:42;100748.16;;;-5.43;100.00
42859;BME280;28505;56.970;40.998;2023-01-13T07:26:09;100727.47;;;-5.46;100.00
42859;BME280;28505;56.970;40.998;2023-01-13T07:31:34;100730.06;;;-5.38;100.00
42859;BME280;28505;56.970;40.998;2023-01-13T07:36:57;100726.44;;;-5.37;100.00
42859;BME280;28505;56.970;40.998;2023-01-13T07:42:20;100730.19;;;-5.23;100.00
42859;BME280;28505;56.970;40.998;2023-01-13T07:48:04;100712.63;;;-5.31;100.00
42859;BME280;28505;56.970;40.998;2023-01-13T07:53:26;100707.91;;;-5.35;100.00
42859;BME280;28505;56.970;40.998;2023-01-13T07:58:49;100714.59;;;-5.25;100.00
42859;BME280;28505;56.970;40.998;2023-01-13T08:04:15;100727.53;;;-5.15;100.00
42859;BME280;28505;56.970;40.998;2023-01-13T08:09:44;100693.41;;;-5.23;100.00
42859;BME280;28505;56.970;40.998;2023-01-13T08:15:07;100719.63;;;-5.15;100.00
42859;BME280;28505;56.970;40.998;2023-01-13T08:20:31;100714.91;;;-5.20;100.00
42859;BME280;28505;56.970;40.998;2023-01-13T08:25:59;100706.00;;;-5.19;100.00
42859;BME280;28505;56.970;40.998;2023-01-13T08:31:28;100714.84;;;-5.11;100.00
42859;BME280;28505;56.970;40.998;2023-01-13T08:36:53;100731.88;;;-4.99;100.00
42859;BME280;28505;56.970;40.998;2023-01-13T08:42:15;100722.72;;;-5.03;100.00
42859;BME280;28505;56.970;40.998;2023-01-13T08:47:38;100739.44;;;-4.96;100.00
42859;BME280;28505;56.970;40.998;2023-01-13T08:53:11;100735.78;;;-4.95;100.00
42859;BME280;28505;56.970;40.998;2023-01-13T08:58:33;100715.63;;;-5.03;100.00
42859;BME280;28505;56.970;40.998;2023-01-13T09:04:00;100701.66;;;-5.03;100.00
42859;BME280;28505;56.970;40.998;2023-01-13T09:09:23;100700.84;;;-5.04;100.00
42859;BME280;28505;56.970;40.998;2023-01-13T09:14:47;100725.06;;;-4.85;100.00
42859;BME280;28505;56.970;40.998;2023-01-13T09:20:10;100711.75;;;-4.84;100.00
42859;BME280;28505;56.970;40.998;2023-01-13T09:25:33;100706.84;;;-4.87;100.00
42859;BME280;28505;56.970;40.998;2023-01-13T09:31:00;100717.63;;;-4.82;100.00
42859;BME280;28505;56.970;40.998;2023-01-13T09:36:22;100722.75;;;-4.80;100.00
42859;BME280;28505;56.970;40.998;2023-01-13T09:41:48;100711.03;;;-4.78;100.00
42859;BME280;28505;56.970;40.998;2023-01-13T09:53:12;100700.50;;;-4.78;100.00
42859;BME280;28505;56.970;40.998;2023-01-13T09:58:35;100696.22;;;-4.71;100.00
42859;BME280;28505;56.970;40.998;2023-01-13T10:04:02;100696.03;;;-4.69;100.00
42859;BME280;28505;56.970;40.998;2023-01-13T10:09:32;100673.16;;;-4.68;100.00
42859;BME280;28505;56.970;40.998;2023-01-13T10:14:55;100665.47;;;-4.70;100.00
42859;BME280;28505;56.970;40.998;2023-01-13T10:20:45;100663.78;;;-4.71;100.00
42859;BME280;28505;56.970;40.998;2023-01-13T10:31:46;100645.56;;;-4.73;100.00
42859;BME280;28505;56.970;40.998;2023-01-13T10:37:21;100655.66;;;-4.61;100.00
42859;BME280;28505;56.970;40.998;2023-01-13T10:42:47;100625.34;;;-4.72;100.00
42859;BME280;28505;56.970;40.998;2023-01-13T10:48:12;100645.88;;;-4.67;100.00
42859;BME280;28505;56.970;40.998;2023-01-13T10:54:30;100632.84;;;-4.61;100.00
42859;BME280;28505;56.970;40.998;2023-01-13T10:59:26;100631.94;;;-4.53;100.00
42859;BME280;28505;56.970;40.998;2023-01-13T11:10:22;100655.41;;;-4.52;100.00
42859;BME280;28505;56.970;40.998;2023-01-13T11:16:14;100657.34;;;-4.45;100.00
42859;BME280;28505;56.970;40.998;2023-01-13T11:22:00;100655.72;;;-4.47;100.00
42859;BME280;28505;56.970;40.998;2023-01-13T11:34:39;100657.47;;;-4.62;100.00
42859;BME280;28505;56.970;40.998;2023-01-13T11:40:37;100618.34;;;-4.80;100.00
42859;BME280;28505;56.970;40.998;2023-01-13T11:46:01;100638.97;;;-4.68;100.00
42859;BME280;28505;56.970;40.998;2023-01-13T11:51:32;100649.88;;;-4.57;100.00
42859;BME280;28505;56.970;40.998;2023-01-13T12:08:16;100681.34;;;-4.63;100.00
42859;BME280;28505;56.970;40.998;2023-01-13T12:14:02;100681.25;;;-4.70;100.00
42859;BME280;28505;56.970;40.998;2023-01-13T12:19:34;100666.97;;;-4.76;100.00
42859;BME280;28505;56.970;40.998;2023-01-13T12:25:05;100673.97;;;-4.68;100.00
42859;BME280;28505;56.970;40.998;2023-01-13T12:41:44;100709.81;;;-4.67;100.00
42859;BME280;28505;56.970;40.998;2023-01-13T12:47:41;100709.53;;;-4.72;100.00
42859;BME280;28505;56.970;40.998;2023-01-13T12:53:30;100699.88;;;-4.80;100.00
42859;BME280;28505;56.970;40.998;2023-01-13T13:10:30;100727.13;;;-4.73;100.00
42859;BME280;28505;56.970;40.998;2023-01-13T13:34:45;100730.50;;;-4.87;100.00
42859;BME280;28505;56.970;40.998;2023-01-13T13:40:15;100711.47;;;-4.97;100.00
42859;BME280;28505;56.970;40.998;2023-01-13T13:46:27;100739.69;;;-4.83;100.00
42859;BME280;28505;56.970;40.998;2023-01-13T13:52:45;100732.41;;;-4.81;100.00
42859;BME280;28505;56.970;40.998;2023-01-13T13:58:18;100720.00;;;-4.87;100.00
42859;BME280;28505;56.970;40.998;2023-01-13T14:04:16;100716.72;;;-4.97;100.00
42859;BME280;28505;56.970;40.998;2023-01-13T14:10:18;100711.00;;;-5.01;100.00
42859;BME280;28505;56.970;40.998;2023-01-13T14:16:03;100727.41;;;-4.90;100.00
42859;BME280;28505;56.970;40.998;2023-01-13T14:21:29;100735.44;;;-4.92;100.00
42859;BME280;28505;56.970;40.998;2023-01-13T14:27:12;100733.81;;;-4.93;100.00
42859;BME280;28505;56.970;40.998;2023-01-13T14:32:39;100724.28;;;-4.94;100.00
42859;BME280;28505;56.970;40.998;2023-01-13T14:38:17;100731.19;;;-4.93;100.00
42859;BME280;28505;56.970;40.998;2023-01-13T14:43:47;100734.44;;;-4.91;100.00
42859;BME280;28505;56.970;40.998;2023-01-13T14:49:34;100724.94;;;-4.92;100.00
42859;BME280;28505;56.970;40.998;2023-01-13T15:00:30;100733.00;;;-4.93;100.00
42859;BME280;28505;56.970;40.998;2023-01-13T15:05:56;100739.72;;;-4.91;100.00
42859;BME280;28505;56.970;40.998;2023-01-13T15:11:23;100743.53;;;-4.93;100.00
42859;BME280;28505;56.970;40.998;2023-01-13T15:16:51;100707.63;;;-5.09;100.00
42859;BME280;28505;56.970;40.998;2023-01-13T15:22:13;100712.88;;;-5.09;100.00
42859;BME280;28505;56.970;40.998;2023-01-13T15:27:36;100730.72;;;-4.97;100.00
42859;BME280;28505;56.970;40.998;2023-01-13T15:32:59;100743.69;;;-4.95;100.00
42859;BME280;28505;56.970;40.998;2023-01-13T15:38:23;100738.44;;;-4.95;100.00
42859;BME280;28505;56.970;40.998;2023-01-13T15:43:47;100725.72;;;-5.14;100.00
42859;BME280;28505;56.970;40.998;2023-01-13T15:49:46;100744.22;;;-5.00;100.00
42859;BME280;28505;56.970;40.998;2023-01-13T15:55:08;100738.78;;;-4.98;100.00
42859;BME280;28505;56.970;40.998;2023-01-13T16:00:31;100732.22;;;-5.02;100.00
42859;BME280;28505;56.970;40.998;2023-01-13T16:05:53;100721.03;;;-4.96;100.00
42859;BME280;28505;56.970;40.998;2023-01-13T16:11:15;100731.34;;;-4.95;100.00
42859;BME280;28505;56.970;40.998;2023-01-13T16:16:37;100703.31;;;-5.02;100.00
42859;BME280;28505;56.970;40.998;2023-01-13T16:22:00;100725.59;;;-4.90;100.00
42859;BME280;28505;56.970;40.998;2023-01-13T16:27:23;100729.84;;;-4.89;100.00
42859;BME280;28505;56.970;40.998;2023-01-13T16:32:46;100711.47;;;-4.97;100.00
42859;BME280;28505;56.970;40.998;2023-01-13T16:38:15;100723.94;;;-4.91;100.00
42859;BME280;28505;56.970;40.998;2023-01-13T16:43:38;100716.03;;;-4.91;100.00
42859;BME280;28505;56.970;40.998;2023-01-13T16:49:03;100720.03;;;-4.95;100.00
42859;BME280;28505;56.970;40.998;2023-01-13T16:54:26;100717.56;;;-4.97;100.00
42859;BME280;28505;56.970;40.998;2023-01-13T16:59:48;100704.00;;;-5.08;100.00
42859;BME280;28505;56.970;40.998;2023-01-13T17:05:11;100721.50;;;-4.92;100.00
42859;BME280;28505;56.970;40.998;2023-01-13T17:10:34;100726.69;;;-4.84;100.00
42859;BME280;28505;56.970;40.998;2023-01-13T17:15:56;100705.53;;;-4.91;100.00
42859;BME280;28505;56.970;40.998;2023-01-13T17:21:21;100721.91;;;-4.81;100.00
42859;BME280;28505;56.970;40.998;2023-01-13T17:26:49;100722.41;;;-4.77;100.00
42859;BME280;28505;56.970;40.998;2023-01-13T17:32:15;100705.16;;;-4.80;100.00
42859;BME280;28505;56.970;40.998;2023-01-13T17:37:54;100710.41;;;-4.80;100.00
42859;BME280;28505;56.970;40.998;2023-01-13T17:43:17;100715.94;;;-4.75;100.00
42859;BME280;28505;56.970;40.998;2023-01-13T17:48:39;100725.16;;;-4.71;100.00
42859;BME280;28505;56.970;40.998;2023-01-13T17:54:02;100712.34;;;-4.74;100.00
42859;BME280;28505;56.970;40.998;2023-01-13T17:59:24;100718.88;;;-4.69;100.00
42859;BME280;28505;56.970;40.998;2023-01-13T18:04:46;100726.69;;;-4.61;100.00
42859;BME280;28505;56.970;40.998;2023-01-13T18:10:13;100750.69;;;-4.56;100.00
42859;BME280;28505;56.970;40.998;2023-01-13T18:15:35;100723.50;;;-4.72;100.00
42859;BME280;28505;56.970;40.998;2023-01-13T18:20:58;100740.06;;;-4.63;100.00
42859;BME280;28505;56.970;40.998;2023-01-13T18:26:38;100746.59;;;-4.59;100.00
42859;BME280;28505;56.970;40.998;2023-01-13T18:32:19;100758.41;;;-4.55;100.00
42859;BME280;28505;56.970;40.998;2023-01-13T18:37:41;100745.78;;;-4.59;100.00
42859;BME280;28505;56.970;40.998;2023-01-13T18:43:04;100762.00;;;-4.48;100.00
42859;BME280;28505;56.970;40.998;2023-01-13T18:48:26;100755.16;;;-4.57;100.00
42859;BME280;28505;56.970;40.998;2023-01-13T18:53:48;100777.59;;;-4.46;100.00
42859;BME280;28505;56.970;40.998;2023-01-13T18:59:10;100767.88;;;-4.45;100.00
42859;BME280;28505;56.970;40.998;2023-01-13T19:04:33;100763.16;;;-4.50;100.00
42859;BME280;28505;56.970;40.998;2023-01-13T19:09:56;100765.91;;;-4.43;100.00
42859;BME280;28505;56.970;40.998;2023-01-13T19:15:22;100763.63;;;-4.47;100.00
42859;BME280;28505;56.970;40.998;2023-01-13T19:20:51;100753.13;;;-4.55;100.00
42859;BME280;28505;56.970;40.998;2023-01-13T19:26:17;100770.34;;;-4.44;100.00
42859;BME280;28505;56.970;40.998;2023-01-13T19:31:40;100762.00;;;-4.48;100.00
42859;BME280;28505;56.970;40.998;2023-01-13T19:37:03;100775.63;;;-4.44;100.00
42859;BME280;28505;56.970;40.998;2023-01-13T19:42:27;100785.81;;;-4.41;100.00
42859;BME280;28505;56.970;40.998;2023-01-13T19:48:08;100781.50;;;-4.42;100.00
42859;BME280;28505;56.970;40.998;2023-01-13T19:53:31;100777.25;;;-4.43;100.00
42859;BME280;28505;56.970;40.998;2023-01-13T19:58:53;100761.69;;;-4.53;100.00
42859;BME280;28505;56.970;40.998;2023-01-13T20:04:16;100771.16;;;-4.43;100.00
42859;BME280;28505;56.970;40.998;2023-01-13T20:09:46;100771.97;;;-4.43;100.00
42859;BME280;28505;56.970;40.998;2023-01-13T20:15:09;100775.75;;;-4.37;100.00
42859;BME280;28505;56.970;40.998;2023-01-13T20:20:31;100785.72;;;-4.33;100.00
42859;BME280;28505;56.970;40.998;2023-01-13T20:25:53;100786.38;;;-4.31;100.00
42859;BME280;28505;56.970;40.998;2023-01-13T20:31:15;100792.47;;;-4.30;100.00
42859;BME280;28505;56.970;40.998;2023-01-13T20:36:37;100770.97;;;-4.42;100.00
42859;BME280;28505;56.970;40.998;2023-01-13T20:42:04;100794.78;;;-4.35;100.00
42859;BME280;28505;56.970;40.998;2023-01-13T20:47:45;100793.63;;;-4.33;100.00
42859;BME280;28505;56.970;40.998;2023-01-13T20:53:07;100795.63;;;-4.35;100.00
42859;BME280;28505;56.970;40.998;2023-01-13T20:58:29;100785.91;;;-4.34;100.00
42859;BME280;28505;56.970;40.998;2023-01-13T21:03:54;100789.88;;;-4.38;100.00
42859;BME280;28505;56.970;40.998;2023-01-13T21:09:17;100800.81;;;-4.27;100.00
42859;BME280;28505;56.970;40.998;2023-01-13T21:14:40;100804.75;;;-4.22;100.00
42859;BME280;28505;56.970;40.998;2023-01-13T21:20:20;100800.59;;;-4.17;100.00
42859;BME280;28505;56.970;40.998;2023-01-13T21:25:42;100815.38;;;-4.16;100.00
42859;BME280;28505;56.970;40.998;2023-01-13T21:31:08;100817.88;;;-4.14;100.00
42859;BME280;28505;56.970;40.998;2023-01-13T21:36:31;100812.94;;;-4.17;100.00
42859;BME280;28505;56.970;40.998;2023-01-13T21:41:53;100827.22;;;-4.12;100.00
42859;BME280;28505;56.970;40.998;2023-01-13T21:47:34;100811.13;;;-4.17;100.00
42859;BME280;28505;56.970;40.998;2023-01-13T21:53:11;100827.84;;;-4.10;100.00
42859;BME280;28505;56.970;40.998;2023-01-13T21:58:33;100815.84;;;-4.12;100.00
42859;BME280;28505;56.970;40.998;2023-01-13T22:03:55;100827.22;;;-4.12;100.00
42859;BME280;28505;56.970;40.998;2023-01-13T22:09:35;100829.31;;;-4.07;100.00
42859;BME280;28505;56.970;40.998;2023-01-13T22:14:57;100804.75;;;-4.22;100.00
42859;BME280;28505;56.970;40.998;2023-01-13T22:20:20;100824.72;;;-4.05;100.00
42859;BME280;28505;56.970;40.998;2023-01-13T22:25:43;100819.59;;;-4.07;100.00
42859;BME280;28505;56.970;40.998;2023-01-13T22:31:12;100831.88;;;-3.99;100.00
42859;BME280;28505;56.970;40.998;2023-01-13T22:36:34;100818.09;;;-4.01;100.00
42859;BME280;28505;56.970;40.998;2023-01-13T22:41:56;100830.25;;;-4.00;100.00
42859;BME280;28505;56.970;40.998;2023-01-13T22:47:18;100821.88;;;-4.04;100.00
42859;BME280;28505;56.970;40.998;2023-01-13T22:52:40;100789.88;;;-4.15;100.00
42859;BME280;28505;56.970;40.998;2023-01-13T22:58:02;100804.00;;;-4.08;100.00
42859;BME280;28505;56.970;40.998;2023-01-13T23:03:24;100800.66;;;-4.02;100.00
42859;BME280;28505;56.970;40.998;2023-01-13T23:08:47;100812.13;;;-3.95;100.00
42859;BME280;28505;56.970;40.998;2023-01-13T23:14:10;100805.53;;;-3.99;100.00
42859;BME280;28505;56.970;40.998;2023-01-13T23:19:40;100800.47;;;-4.01;100.00
42859;BME280;28505;56.970;40.998;2023-01-13T23:25:06;100822.94;;;-3.90;100.00
42859;BME280;28505;56.970;40.998;2023-01-13T23:30:28;100825.66;;;-3.83;100.00
42859;BME280;28505;56.970;40.998;2023-01-13T23:35:56;100827.69;;;-3.85;100.00
42859;BME280;28505;56.970;40.998;2023-01-13T23:41:22;100811.56;;;-3.90;100.00
42859;BME280;28505;56.970;40.998;2023-01-13T23:46:44;100817.03;;;-3.92;100.00
42859;BME280;28505;56.970;40.998;2023-01-13T23:52:09;100825.84;;;-3.85;100.00
42859;BME280;28505;56.970;40.998;2023-01-13T23:57:32;100811.75;;;-3.92;100.00
